Time;durP1;ratioP1;P1;durP2;ratioP2;P2;SDS_P1;SDS_P2;PMS_P1;PMS_P2;Temp;Humidity;BMP_temperature;BMP_pressure;BME280_temperature;BME280_humidity;BME280_pressure;Samples;Min_cycle;Max_cycle;Signal;HPM_P1;HPM_P2
2023/05/31 00:01:17;;;;;;;6.72;2.95;;;8.80;89.80;;;;;;5044361;28;20171;-69
2023/05/31 00:03:43;;;;;;;8.07;2.95;;;8.80;89.80;;;;;;5054122;28;20489;-68
2023/05/31 00:06:12;;;;;;;9.68;3.45;;;8.70;89.70;;;;;;5026413;28;20106;-65
2023/05/31 00:08:39;;;;;;;6.57;2.95;;;8.70;89.80;;;;;;5046146;28;20116;-69
2023/05/31 00:11:06;;;;;;;7.93;3.22;;;8.60;90.00;;;;;;5046067;28;20128;-68
2023/05/31 00:13:32;;;;;;;6.45;2.95;;;8.60;90.00;;;;;;5039013;28;20049;-69
2023/05/31 00:15:58;;;;;;;7.47;3.35;;;8.50;90.00;;;;;;5045149;28;20041;-69
2023/05/31 00:18:24;;;;;;;6.97;3.53;;;8.50;90.10;;;;;;5048352;28;20543;-69
2023/05/31 00:20:50;;;;;;;7.07;3.15;;;8.50;90.20;;;;;;5045704;28;20036;-68
2023/05/31 00:23:16;;;;;;;6.50;3.22;;;8.50;90.20;;;;;;5042950;28;20056;-69
2023/05/31 00:25:41;;;;;;;5.97;3.53;;;8.50;90.20;;;;;;5040292;28;20463;-69
2023/05/31 00:28:07;;;;;;;6.65;3.15;;;8.50;90.30;;;;;;5038244;28;20041;-69
2023/05/31 00:30:33;;;;;;;8.48;3.47;;;8.50;90.30;;;;;;5046064;28;20517;-69
2023/05/31 00:32:58;;;;;;;7.90;3.58;;;8.50;90.30;;;;;;5036292;28;20371;-69
2023/05/31 00:35:24;;;;;;;8.18;3.50;;;8.50;90.40;;;;;;5039911;28;20063;-68
2023/05/31 00:37:49;;;;;;;8.48;3.60;;;8.40;90.40;;;;;;5029136;28;20512;-69
2023/05/31 00:40:15;;;;;;;9.65;3.50;;;8.40;90.40;;;;;;5051187;28;20164;-69
2023/05/31 00:42:41;;;;;;;6.50;3.22;;;8.40;90.60;;;;;;5025887;28;20475;-70
2023/05/31 00:45:07;;;;;;;8.35;3.58;;;8.40;90.50;;;;;;5028878;28;20033;-70
2023/05/31 00:47:34;;;;;;;9.65;3.47;;;8.40;90.70;;;;;;5042379;28;20056;-70
2023/05/31 00:50:00;;;;;;;8.25;3.70;;;8.40;90.70;;;;;;5037335;28;20126;-69
2023/05/31 00:52:27;;;;;;;6.03;3.47;;;8.40;90.70;;;;;;5033949;28;20065;-69
2023/05/31 00:54:53;;;;;;;7.80;3.75;;;8.40;90.80;;;;;;5032224;28;20385;-69
2023/05/31 00:57:18;;;;;;;7.75;3.80;;;8.40;90.90;;;;;;5045741;28;20047;-67
2023/05/31 00:59:44;;;;;;;11.18;3.88;;;8.40;90.90;;;;;;5046322;28;20032;-68
2023/05/31 01:02:11;;;;;;;8.20;3.78;;;8.40;91.00;;;;;;5046184;28;20047;-69
2023/05/31 01:04:37;;;;;;;7.50;3.78;;;8.40;90.90;;;;;;5024005;28;20118;-65
2023/05/31 01:07:04;;;;;;;8.02;4.35;;;8.40;91.00;;;;;;5042211;28;20067;-69
2023/05/31 01:09:30;;;;;;;8.75;3.92;;;8.40;91.00;;;;;;5023064;28;20219;-69
2023/05/31 01:11:56;;;;;;;9.27;3.78;;;8.40;91.10;;;;;;5030671;28;20038;-69
2023/05/31 01:14:36;;;;;;;10.88;3.75;;;8.40;91.20;;;;;;5042153;28;20044;-69
2023/05/31 01:17:22;;;;;;;;;;;8.40;91.50;;;;;;5027457;28;20106;-69
2023/05/31 01:19:57;;;;;;;8.60;3.63;;;8.40;92.50;;;;;;5027139;28;19923;-69
2023/05/31 01:22:33;;;;;;;7.22;3.38;;;8.30;91.30;;;;;;5036633;28;20477;-69
2023/05/31 01:25:05;;;;;;;9.23;3.53;;;8.30;91.50;;;;;;5048134;28;20044;-69
2023/05/31 01:27:31;;;;;;;8.15;3.30;;;8.20;91.40;;;;;;5039374;28;20049;-69
2023/05/31 01:29:58;;;;;;;7.60;3.55;;;8.30;91.30;;;;;;5046151;28;20076;-69
2023/05/31 01:32:25;;;;;;;7.55;3.95;;;8.30;91.50;;;;;;5036050;28;22189;-69
2023/05/31 01:34:50;;;;;;;8.70;3.75;;;8.30;91.50;;;;;;5038623;28;20036;-67
2023/05/31 01:37:16;;;;;;;11.98;4.35;;;8.30;91.50;;;;;;5029070;28;20048;-67
2023/05/31 01:39:42;;;;;;;8.18;3.80;;;8.20;91.50;;;;;;5029722;28;20136;-69
2023/05/31 01:42:10;;;;;;;8.35;3.40;;;8.30;91.60;;;;;;5029430;28;20042;-69
2023/05/31 01:44:37;;;;;;;7.65;3.03;;;8.20;91.80;;;;;;5038404;28;20453;-69
2023/05/31 01:47:03;;;;;;;9.35;3.88;;;8.30;92.00;;;;;;5041410;28;20139;-70
2023/05/31 01:49:29;;;;;;;7.30;3.58;;;8.20;91.80;;;;;;5031600;28;20053;-70
2023/05/31 01:51:56;;;;;;;9.55;3.83;;;8.20;92.00;;;;;;5030342;28;20119;-69
2023/05/31 01:54:22;;;;;;;8.45;3.53;;;8.20;92.00;;;;;;5032146;28;20045;-69
2023/05/31 01:56:48;;;;;;;9.18;3.35;;;8.10;92.10;;;;;;5040497;28;20029;-69
2023/05/31 01:59:15;;;;;;;10.63;3.92;;;8.10;92.10;;;;;;5048343;28;20441;-70
2023/05/31 02:01:41;;;;;;;10.88;4.40;;;8.10;92.20;;;;;;5048981;28;20032;-69
2023/05/31 02:04:07;;;;;;;7.50;3.33;;;8.10;92.50;;;;;;5034278;28;20588;-70
2023/05/31 02:06:36;;;;;;;7.57;3.83;;;8.10;92.40;;;;;;5034392;28;20036;-69
2023/05/31 02:09:03;;;;;;;9.57;4.07;;;8.10;92.40;;;;;;5040145;28;20041;-69
2023/05/31 02:11:29;;;;;;;11.18;3.95;;;8.10;92.40;;;;;;5037122;28;20037;-70
2023/05/31 02:13:55;;;;;;;9.77;4.30;;;8.10;92.70;;;;;;5034987;28;20037;-69
2023/05/31 02:16:21;;;;;;;8.07;3.85;;;8.00;92.70;;;;;;5037136;28;20118;-70
2023/05/31 02:18:46;;;;;;;9.00;3.63;;;8.00;92.60;;;;;;5041128;28;20037;-70
2023/05/31 02:21:12;;;;;;;8.13;2.78;;;8.00;92.50;;;;;;5033460;28;20045;-70
2023/05/31 02:23:37;;;;;;;6.38;2.92;;;7.90;92.50;;;;;;5034063;28;20057;-65
2023/05/31 02:26:04;;;;;;;9.10;3.20;;;7.90;92.60;;;;;;5036317;28;20033;-69
2023/05/31 02:28:29;;;;;;;7.30;4.25;;;7.80;92.60;;;;;;5041632;28;20430;-70
2023/05/31 02:30:59;;;;;;;9.45;3.70;;;7.90;92.80;;;;;;5042509;28;20155;-70
2023/05/31 02:33:25;;;;;;;6.82;3.17;;;7.90;92.80;;;;;;5037676;28;20049;-69
2023/05/31 02:35:52;;;;;;;8.07;3.60;;;7.80;92.90;;;;;;5042010;28;20052;-69
2023/05/31 02:38:19;;;;;;;5.80;3.10;;;7.80;92.60;;;;;;5032474;28;20512;-66
2023/05/31 02:40:44;;;;;;;8.18;3.42;;;7.80;92.70;;;;;;5033352;28;20037;-69
2023/05/31 02:43:10;;;;;;;8.02;3.80;;;7.80;92.70;;;;;;5049124;28;20483;-69
2023/05/31 02:45:35;;;;;;;8.20;3.80;;;7.70;92.80;;;;;;5036612;28;20207;-70
2023/05/31 02:48:04;;;;;;;10.02;3.97;;;7.70;92.90;;;;;;5035393;28;20111;-70
2023/05/31 02:50:31;;;;;;;8.38;3.63;;;7.70;92.90;;;;;;5033066;28;20508;-70
2023/05/31 02:52:56;;;;;;;11.13;4.85;;;7.70;92.90;;;;;;5032818;28;20037;-73
2023/05/31 02:55:22;;;;;;;12.18;4.22;;;7.70;93.00;;;;;;5036379;28;20101;-71
2023/05/31 02:57:48;;;;;;;14.85;4.45;;;7.70;93.00;;;;;;5040208;28;20044;-72
2023/05/31 03:00:14;;;;;;;8.88;4.40;;;7.70;93.10;;;;;;5041408;28;20044;-72
2023/05/31 03:02:40;;;;;;;10.07;3.67;;;7.70;93.10;;;;;;5031776;28;20045;-72
2023/05/31 03:05:08;;;;;;;9.23;4.03;;;7.70;93.20;;;;;;5039578;28;20132;-72
2023/05/31 03:07:37;;;;;;;12.82;4.20;;;7.70;93.50;;;;;;5035655;28;20152;-72
2023/05/31 03:10:06;;;;;;;10.05;3.97;;;7.70;93.50;;;;;;5037197;28;20063;-72
2023/05/31 03:12:33;;;;;;;10.68;4.15;;;7.70;93.70;;;;;;5025801;28;20132;-72
2023/05/31 03:14:58;;;;;;;11.45;4.47;;;7.70;93.60;;;;;;5042001;28;20104;-73
2023/05/31 03:17:24;;;;;;;10.48;3.85;;;7.60;93.50;;;;;;5024086;28;20080;-71
2023/05/31 03:19:50;;;;;;;9.70;4.10;;;7.70;93.70;;;;;;5040695;28;20041;-72
2023/05/31 03:22:16;;;;;;;11.57;4.50;;;7.70;93.70;;;;;;5030813;28;20051;-70
2023/05/31 03:24:41;;;;;;;10.18;4.28;;;7.60;93.50;;;;;;5033252;28;20043;-72
2023/05/31 03:27:07;;;;;;;11.23;4.72;;;7.60;93.60;;;;;;5034403;28;20140;-72
2023/05/31 03:29:36;;;;;;;12.55;5.05;;;7.60;93.70;;;;;;5030831;28;20072;-72
2023/05/31 03:32:02;;;;;;;9.65;4.07;;;7.60;93.80;;;;;;5030702;28;20037;-72
2023/05/31 03:34:28;;;;;;;13.32;4.40;;;7.60;93.70;;;;;;5035382;28;20053;-71
2023/05/31 03:36:54;;;;;;;10.23;3.95;;;7.60;93.80;;;;;;5030665;28;20437;-68
2023/05/31 03:39:20;;;;;;;10.63;4.25;;;7.60;93.80;;;;;;5038367;28;20109;-70
2023/05/31 03:41:46;;;;;;;7.50;4.03;;;7.60;93.80;;;;;;5042667;28;20365;-72
2023/05/31 03:44:11;;;;;;;8.50;3.92;;;7.60;93.90;;;;;;5031721;28;20057;-70
2023/05/31 03:46:37;;;;;;;11.88;4.20;;;7.60;94.00;;;;;;5028863;28;20056;-71
2023/05/31 03:49:05;;;;;;;7.85;4.10;;;7.60;94.00;;;;;;5043473;28;20051;-72
2023/05/31 03:51:31;;;;;;;8.35;4.03;;;7.60;93.90;;;;;;5036329;28;20464;-71
2023/05/31 03:53:57;;;;;;;10.73;4.63;;;7.60;94.00;;;;;;5038881;28;20045;-71
2023/05/31 03:56:22;;;;;;;11.77;4.28;;;7.60;94.00;;;;;;5034681;28;20105;-70
2023/05/31 03:58:48;;;;;;;13.57;4.30;;;7.70;94.10;;;;;;5044093;28;20495;-71
2023/05/31 04:01:13;;;;;;;11.90;3.95;;;7.70;94.30;;;;;;5044356;28;20083;-71
2023/05/31 04:03:39;;;;;;;10.85;5.03;;;7.70;94.40;;;;;;5048135;28;20061;-71
2023/05/31 04:06:05;;;;;;;10.77;3.97;;;7.80;94.40;;;;;;5032126;28;20073;-71
2023/05/31 04:08:30;;;;;;;10.93;4.15;;;7.70;94.30;;;;;;5041751;28;20037;-71
2023/05/31 04:10:56;;;;;;;10.30;4.15;;;7.80;94.30;;;;;;5035543;28;20451;-71
2023/05/31 04:13:21;;;;;;;11.50;4.47;;;7.80;94.40;;;;;;5038741;28;20037;-69
2023/05/31 04:15:47;;;;;;;12.38;4.57;;;7.80;94.40;;;;;;5035003;28;20029;-71
2023/05/31 04:18:13;;;;;;;16.10;5.88;;;7.80;94.50;;;;;;5042701;28;20044;-72
2023/05/31 04:20:38;;;;;;;10.13;4.63;;;7.90;94.60;;;;;;5044734;28;20442;-71
2023/05/31 04:23:04;;;;;;;10.88;4.65;;;7.90;94.60;;;;;;5040650;28;20531;-71
2023/05/31 04:25:31;;;;;;;11.02;4.70;;;7.90;94.60;;;;;;5037971;28;20127;-71
2023/05/31 04:27:56;;;;;;;9.75;4.70;;;8.00;94.70;;;;;;5044674;28;20048;-71
2023/05/31 04:30:23;;;;;;;11.48;4.50;;;8.10;94.80;;;;;;5038704;28;20596;-72
2023/05/31 04:32:51;;;;;;;12.23;5.07;;;8.10;95.10;;;;;;5038123;28;20037;-72
2023/05/31 04:35:16;;;;;;;12.43;5.15;;;8.20;95.20;;;;;;5028957;28;20052;-68
2023/05/31 04:37:42;;;;;;;11.77;4.95;;;8.30;95.10;;;;;;5035116;28;20588;-72
2023/05/31 04:40:11;;;;;;;12.73;5.30;;;8.40;95.20;;;;;;5030542;28;20081;-72
2023/05/31 04:42:37;;;;;;;12.07;5.22;;;8.50;95.30;;;;;;5033413;28;20124;-70
2023/05/31 04:45:04;;;;;;;9.65;4.30;;;8.60;95.40;;;;;;5035943;28;20518;-72
2023/05/31 04:47:36;;;;;;;11.95;4.88;;;8.60;95.40;;;;;;5032817;28;20057;-72
2023/05/31 04:50:01;;;;;;;10.85;5.35;;;8.80;95.60;;;;;;5044078;28;20516;-72
2023/05/31 04:52:34;;;;;;;15.15;5.55;;;8.90;95.40;;;;;;5041401;28;20040;-71
2023/05/31 04:55:00;;;;;;;16.02;5.70;;;9.00;95.40;;;;;;5044344;28;20139;-72
2023/05/31 04:57:28;;;;;;;17.67;5.82;;;9.10;95.30;;;;;;5029575;28;20064;-72
2023/05/31 04:59:56;;;;;;;15.40;5.45;;;9.30;95.50;;;;;;5030120;28;20342;-72
2023/05/31 05:02:22;;;;;;;16.88;5.65;;;9.40;95.60;;;;;;5032103;28;20128;-69
2023/05/31 05:04:51;;;;;;;14.18;6.55;;;9.50;95.70;;;;;;5028808;28;20120;-70
2023/05/31 05:07:17;;;;;;;12.07;5.97;;;9.70;95.90;;;;;;5029987;28;20156;-66
2023/05/31 05:09:43;;;;;;;13.63;5.70;;;9.80;95.90;;;;;;5039117;28;20120;-68
2023/05/31 05:12:09;;;;;;;16.17;5.78;;;10.00;96.00;;;;;;5040411;28;20105;-69
2023/05/31 05:14:35;;;;;;;15.68;6.20;;;10.10;96.20;;;;;;5028654;28;20354;-69
2023/05/31 05:17:00;;;;;;;15.85;6.20;;;10.30;96.30;;;;;;5038385;28;20041;-68
2023/05/31 05:19:26;;;;;;;17.15;6.72;;;10.50;96.40;;;;;;5032238;28;20109;-69
2023/05/31 05:21:52;;;;;;;14.73;6.53;;;10.70;96.50;;;;;;5040036;28;20132;-68
2023/05/31 05:24:17;;;;;;;14.73;6.72;;;10.90;96.60;;;;;;5035887;28;20064;-69
2023/05/31 05:26:44;;;;;;;13.95;6.25;;;11.00;96.70;;;;;;5041694;28;20037;-67
2023/05/31 05:29:09;;;;;;;14.40;6.47;;;11.20;96.80;;;;;;5037119;28;20446;-69
2023/05/31 05:31:35;;;;;;;15.10;6.35;;;11.30;96.90;;;;;;5053000;28;20033;-69
2023/05/31 05:34:00;;;;;;;21.35;7.60;;;11.50;96.90;;;;;;5034453;28;20449;-68
2023/05/31 05:36:26;;;;;;;17.05;6.90;;;11.70;96.80;;;;;;5040292;28;20041;-69
2023/05/31 05:38:52;;;;;;;15.98;6.88;;;11.80;96.80;;;;;;5036178;28;20181;-69
2023/05/31 05:41:17;;;;;;;13.30;6.00;;;12.00;96.70;;;;;;5046255;28;20045;-69
2023/05/31 05:43:43;;;;;;;12.65;6.00;;;12.20;96.60;;;;;;5040213;28;20212;-67
2023/05/31 05:46:09;;;;;;;13.95;7.05;;;12.40;96.40;;;;;;5040475;28;20057;-68
2023/05/31 05:48:34;;;;;;;16.50;7.30;;;12.50;96.20;;;;;;5026157;28;20137;-68
2023/05/31 05:51:00;;;;;;;16.27;7.70;;;12.60;96.10;;;;;;5044330;28;20083;-69
2023/05/31 05:53:26;;;;;;;16.77;6.85;;;12.90;95.90;;;;;;5042108;28;20032;-69
2023/05/31 05:55:53;;;;;;;15.77;7.75;;;13.10;95.70;;;;;;5024900;28;20056;-69
2023/05/31 05:58:19;;;;;;;16.98;7.25;;;13.20;95.30;;;;;;5028559;28;20091;-67
2023/05/31 06:00:45;;;;;;;16.27;7.68;;;13.40;95.20;;;;;;5036494;28;20044;-68
2023/05/31 06:03:12;;;;;;;14.07;7.13;;;13.50;94.90;;;;;;5038653;28;20445;-66
2023/05/31 06:05:38;;;;;;;13.35;7.15;;;13.70;94.70;;;;;;5034339;28;20129;-66
2023/05/31 06:08:03;;;;;;;16.85;7.65;;;14.00;94.40;;;;;;5024761;28;20054;-69
2023/05/31 06:10:29;;;;;;;10.63;6.88;;;14.20;93.70;;;;;;5035505;28;20091;-69
2023/05/31 06:12:55;;;;;;;15.38;7.70;;;14.40;93.10;;;;;;5031540;28;20128;-68
2023/05/31 06:15:20;;;;;;;16.02;7.20;;;14.60;92.60;;;;;;5038490;28;20036;-68
2023/05/31 06:17:48;;;;;;;15.27;7.35;;;14.80;92.10;;;;;;5037815;28;20037;-69
2023/05/31 06:20:14;;;;;;;12.63;7.10;;;14.90;91.90;;;;;;5042737;28;20044;-67
2023/05/31 06:22:39;;;;;;;14.95;6.53;;;15.10;91.40;;;;;;5040964;28;20349;-69
2023/05/31 06:25:05;;;;;;;13.23;6.50;;;15.30;90.80;;;;;;5041251;28;20195;-68
2023/05/31 06:27:31;;;;;;;12.43;6.10;;;15.50;90.40;;;;;;5044733;28;20037;-68
2023/05/31 06:30:00;;;;;;;10.90;6.07;;;15.70;90.00;;;;;;5039683;28;20037;-68
2023/05/31 06:32:29;;;;;;;9.50;4.65;;;15.90;88.50;;;;;;5029587;28;20491;-69
2023/05/31 06:34:55;;;;;;;9.98;5.32;;;16.10;86.90;;;;;;5047094;28;20124;-70
2023/05/31 06:37:21;;;;;;;10.48;4.55;;;16.30;85.70;;;;;;5043364;28;20045;-69
2023/05/31 06:39:48;;;;;;;9.43;4.75;;;16.50;83.80;;;;;;5045401;28;20533;-69
2023/05/31 06:42:14;;;;;;;8.48;4.43;;;16.60;82.60;;;;;;5034620;28;20449;-68
2023/05/31 06:44:41;;;;;;;6.25;3.47;;;16.90;81.20;;;;;;5045689;28;20155;-70
2023/05/31 06:47:07;;;;;;;8.38;3.83;;;17.10;80.00;;;;;;5043545;28;20068;-69
2023/05/31 06:49:33;;;;;;;7.13;3.75;;;17.20;78.80;;;;;;5041366;28;20041;-68
2023/05/31 06:51:58;;;;;;;12.63;4.15;;;17.30;77.80;;;;;;5024673;28;20028;-68
2023/05/31 06:54:26;;;;;;;7.00;3.40;;;17.50;76.80;;;;;;5041141;28;20133;-68
2023/05/31 06:56:52;;;;;;;7.30;4.20;;;17.70;75.90;;;;;;5044987;28;20041;-68
2023/05/31 06:59:17;;;;;;;7.28;3.78;;;18.00;75.00;;;;;;5024216;28;20150;-69
2023/05/31 07:01:43;;;;;;;9.18;3.60;;;18.10;74.00;;;;;;5041301;28;20472;-67
2023/05/31 07:04:09;;;;;;;10.05;5.03;;;18.10;73.30;;;;;;5042212;28;20159;-68
2023/05/31 07:06:37;;;;;;;7.38;3.88;;;18.30;72.70;;;;;;5041715;28;20437;-69
2023/05/31 07:09:03;;;;;;;8.10;4.82;;;18.40;72.00;;;;;;5024821;28;20412;-68
2023/05/31 07:11:29;;;;;;;7.88;4.22;;;18.40;71.80;;;;;;5039929;28;20103;-67
2023/05/31 07:13:59;;;;;;;9.05;4.78;;;18.70;71.10;;;;;;5045564;28;20151;-68
2023/05/31 07:16:25;;;;;;;11.02;4.10;;;18.70;70.80;;;;;;5036842;28;20116;-68
2023/05/31 07:18:50;;;;;;;9.23;4.75;;;18.90;70.60;;;;;;5040690;28;20145;-68
2023/05/31 07:21:16;;;;;;;7.80;3.33;;;18.90;70.10;;;;;;5024088;28;20473;-68
2023/05/31 07:23:41;;;;;;;6.82;3.72;;;19.20;69.50;;;;;;5039552;28;20049;-68
2023/05/31 07:26:07;;;;;;;8.48;3.85;;;19.40;68.40;;;;;;5045417;28;20060;-68
2023/05/31 07:28:32;;;;;;;5.60;3.60;;;19.60;67.80;;;;;;5046450;28;20041;-68
2023/05/31 07:30:58;;;;;;;6.30;3.80;;;20.00;66.80;;;;;;5042491;28;20037;-68
2023/05/31 07:33:24;;;;;;;8.32;3.55;;;20.10;65.70;;;;;;5037977;28;20045;-67
2023/05/31 07:35:50;;;;;;;11.43;3.75;;;20.20;65.40;;;;;;5014926;28;20462;-67
2023/05/31 07:38:15;;;;;;;7.65;3.83;;;20.40;64.40;;;;;;5042634;28;20123;-67
2023/05/31 07:40:41;;;;;;;6.47;3.40;;;20.50;63.40;;;;;;5044418;28;20044;-68
2023/05/31 07:43:07;;;;;;;7.20;3.60;;;20.70;62.00;;;;;;5047359;28;20059;-68
2023/05/31 07:45:33;;;;;;;7.28;3.10;;;20.90;61.60;;;;;;5051053;28;20163;-67
2023/05/31 07:47:58;;;;;;;8.60;4.13;;;21.10;61.30;;;;;;5039099;28;20087;-69
2023/05/31 07:50:25;;;;;;;6.68;3.35;;;21.10;60.90;;;;;;5040329;28;20037;-68
2023/05/31 07:52:51;;;;;;;7.07;3.70;;;21.20;60.30;;;;;;5041963;28;20097;-68
2023/05/31 07:55:17;;;;;;;8.15;3.63;;;21.50;59.40;;;;;;5037588;28;20051;-68
2023/05/31 07:57:43;;;;;;;8.45;3.47;;;21.80;59.10;;;;;;5046851;28;20036;-68
2023/05/31 08:00:13;;;;;;;5.82;3.33;;;21.90;58.40;;;;;;5046582;28;20186;-68
2023/05/31 08:02:39;;;;;;;8.30;3.67;;;22.20;56.70;;;;;;5040721;28;20087;-69
2023/05/31 08:05:05;;;;;;;7.18;3.50;;;22.40;55.80;;;;;;5046879;28;20049;-68
2023/05/31 08:07:30;;;;;;;5.43;3.60;;;22.50;54.90;;;;;;5030212;28;20412;-67
2023/05/31 08:09:56;;;;;;;10.05;3.53;;;22.50;54.60;;;;;;5035268;28;20033;-68
2023/05/31 08:12:21;;;;;;;6.38;3.20;;;22.70;53.40;;;;;;5033786;28;20049;-68
2023/05/31 08:14:47;;;;;;;6.63;3.30;;;22.90;52.60;;;;;;5041654;28;20056;-68
2023/05/31 08:17:13;;;;;;;6.32;3.00;;;23.00;51.90;;;;;;5044058;28;20041;-68
2023/05/31 08:19:38;;;;;;;8.02;3.25;;;23.10;51.30;;;;;;5048656;28;20118;-68
2023/05/31 08:22:04;;;;;;;7.47;3.20;;;23.30;50.10;;;;;;5044292;28;20072;-68
2023/05/31 08:24:30;;;;;;;6.63;3.10;;;23.40;49.90;;;;;;5043941;28;20080;-69
2023/05/31 08:26:58;;;;;;;6.13;3.15;;;23.60;49.40;;;;;;5047909;28;20056;-68
2023/05/31 08:29:24;;;;;;;6.15;2.60;;;23.70;48.80;;;;;;5031866;28;20029;-68
2023/05/31 08:31:49;;;;;;;5.85;2.65;;;24.20;47.70;;;;;;5047632;28;20048;-68
2023/05/31 08:34:15;;;;;;;6.28;2.75;;;24.40;46.00;;;;;;5040587;28;20048;-68
2023/05/31 08:36:40;;;;;;;4.97;2.83;;;25.00;45.50;;;;;;5045168;28;20037;-68
2023/05/31 08:39:08;;;;;;;6.30;2.67;;;24.90;46.00;;;;;;5050207;28;20056;-67
2023/05/31 08:41:46;;;;;;;4.05;2.58;;;25.50;45.00;;;;;;5043773;28;20389;-67
2023/05/31 08:44:14;;;;;;;5.35;2.65;;;25.80;42.00;;;;;;5045719;28;20140;-68
2023/05/31 08:46:41;;;;;;;6.25;2.30;;;25.90;41.60;;;;;;5044002;28;20206;-68
2023/05/31 08:49:10;;;;;;;5.20;3.00;;;26.00;40.90;;;;;;5038154;28;20037;-68
2023/05/31 08:51:37;;;;;;;7.20;2.92;;;26.40;40.40;;;;;;5044503;28;20037;-68
2023/05/31 08:54:04;;;;;;;6.43;2.67;;;26.60;40.00;;;;;;5041499;28;20048;-67
2023/05/31 08:56:31;;;;;;;6.00;2.33;;;26.90;38.60;;;;;;5043876;28;20045;-68
2023/05/31 08:58:57;;;;;;;7.30;2.72;;;26.90;38.30;;;;;;5042049;28;20041;-68
2023/05/31 09:01:25;;;;;;;7.68;2.50;;;27.10;38.60;;;;;;5043842;28;20052;-69
2023/05/31 09:03:53;;;;;;;7.10;2.95;;;27.40;38.60;;;;;;5040982;28;20048;-68
2023/05/31 09:06:19;;;;;;;5.78;2.63;;;27.50;38.70;;;;;;5045342;28;20078;-68
2023/05/31 09:08:44;;;;;;;6.25;2.78;;;27.70;39.20;;;;;;5038265;28;20052;-68
2023/05/31 09:11:12;;;;;;;6.60;2.97;;;27.90;37.90;;;;;;5041923;28;21025;-68
2023/05/31 09:13:37;;;;;;;5.93;3.33;;;28.10;37.00;;;;;;5044779;28;20037;-68
2023/05/31 09:16:03;;;;;;;6.05;3.08;;;28.50;36.60;;;;;;5039374;28;20098;-68
2023/05/31 09:18:36;;;;;;;6.28;2.60;;;28.60;36.40;;;;;;5049506;28;20052;-68
2023/05/31 09:21:08;;;;;;;5.80;3.13;;;29.00;35.10;;;;;;5047787;28;20033;-68
2023/05/31 09:23:34;;;;;;;6.05;2.95;;;29.30;35.00;;;;;;5046610;28;20045;-68
2023/05/31 09:26:00;;;;;;;6.88;3.50;;;29.50;34.60;;;;;;5048668;28;20036;-68
2023/05/31 09:28:25;;;;;;;4.85;2.60;;;29.80;33.30;;;;;;5041327;28;20106;-68
2023/05/31 09:31:01;;;;;;;7.38;3.30;;;30.20;32.70;;;;;;5035056;28;20422;-68
2023/05/31 09:33:43;;;;;;;5.78;2.92;;;30.50;32.00;;;;;;5042816;28;20382;-68
2023/05/31 09:36:12;;;;;;;6.20;2.75;;;30.60;30.60;;;;;;5039459;28;20055;-68
2023/05/31 09:38:38;;;;;;;6.07;2.70;;;31.00;31.90;;;;;;5042368;28;20055;-68
2023/05/31 09:41:19;;;;;;;5.85;3.22;;;31.30;31.40;;;;;;5048687;28;20048;-69
2023/05/31 09:43:49;;;;;;;6.07;2.67;;;31.30;30.60;;;;;;5047290;28;20118;-69
2023/05/31 09:46:23;;;;;;;6.05;3.08;;;31.30;30.50;;;;;;5045069;28;20131;-69
2023/05/31 09:49:03;;;;;;;6.40;2.92;;;30.90;30.70;;;;;;5043015;28;20459;-69
2023/05/31 09:51:32;;;;;;;5.55;2.63;;;30.30;30.30;;;;;;5045101;28;20182;-69
2023/05/31 09:54:00;;;;;;;4.70;2.83;;;30.00;32.00;;;;;;5041352;28;20426;-68
2023/05/31 09:56:27;;;;;;;7.20;3.20;;;30.30;31.80;;;;;;5045226;28;20532;-68
2023/05/31 09:58:56;;;;;;;7.22;3.70;;;30.70;30.50;;;;;;5047217;28;20099;-65
2023/05/31 10:01:22;;;;;;;4.53;3.37;;;31.10;28.70;;;;;;5030365;28;20506;-69
2023/05/31 10:03:50;;;;;;;8.07;4.03;;;31.10;29.20;;;;;;5027795;28;20041;-69
2023/05/31 10:06:19;;;;;;;7.03;3.20;;;31.70;28.50;;;;;;5030314;28;20065;-68
2023/05/31 10:08:46;;;;;;;6.82;3.40;;;31.80;29.10;;;;;;5030685;28;20183;-69
2023/05/31 10:11:16;;;;;;;7.38;3.45;;;32.20;29.00;;;;;;5034367;28;20044;-70
2023/05/31 10:13:44;;;;;;;6.80;3.10;;;32.70;28.70;;;;;;5032292;28;20033;-69
2023/05/31 10:16:10;;;;;;;5.90;2.45;;;32.80;28.70;;;;;;5030983;28;20041;-66
2023/05/31 10:18:40;;;;;;;6.00;3.03;;;33.10;29.30;;;;;;5031565;28;20599;-69
2023/05/31 10:21:24;;;;;;;6.07;2.63;;;32.40;28.80;;;;;;5033252;28;20033;-69
2023/05/31 10:24:19;;;;;;;5.32;2.22;;;32.50;29.20;;;;;;5033735;28;20193;-69
2023/05/31 10:27:28;;;;;;;6.38;2.80;;;31.70;29.70;;;;;;5043718;28;20040;-68
2023/05/31 10:29:56;;;;;;;8.75;3.08;;;30.50;30.40;;;;;;5004518;28;20116;-68
2023/05/31 10:32:29;;;;;;;6.35;3.03;;;29.40;33.10;;;;;;5007249;28;21988;-68
2023/05/31 10:34:55;;;;;;;7.10;2.72;;;29.30;33.60;;;;;;5035404;28;20045;-70
2023/05/31 10:37:21;;;;;;;7.40;2.78;;;30.00;33.60;;;;;;5045774;28;20051;-69
2023/05/31 10:40:15;;;;;;;9.40;2.80;;;30.90;32.80;;;;;;5036931;28;20041;-69
2023/05/31 10:42:46;;;;;;;6.57;2.92;;;31.90;30.00;;;;;;5043922;28;20039;-70
2023/05/31 10:45:27;;;;;;;6.93;3.00;;;32.00;30.90;;;;;;5039894;28;20045;-69
2023/05/31 10:48:02;;;;;;;6.40;2.80;;;31.80;30.90;;;;;;5043066;28;20191;-69
2023/05/31 10:50:28;;;;;;;6.22;3.47;;;32.10;31.00;;;;;;5044089;28;20396;-70
2023/05/31 10:53:10;;;;;;;5.75;3.58;;;32.10;30.20;;;;;;5047667;28;20044;-69
2023/05/31 10:55:43;;;;;;;6.82;2.95;;;31.50;29.90;;;;;;5044096;28;20032;-69
2023/05/31 10:58:29;;;;;;;10.35;3.90;;;30.70;31.20;;;;;;5022290;28;20049;-69
2023/05/31 11:00:56;;;;;;;8.02;3.53;;;30.00;31.60;;;;;;5041634;28;20468;-69
2023/05/31 11:03:23;;;;;;;6.88;3.42;;;29.10;33.80;;;;;;5042162;28;20134;-68
2023/05/31 11:05:57;;;;;;;10.75;3.80;;;28.50;34.60;;;;;;5027584;28;20044;-70
2023/05/31 11:08:23;;;;;;;8.27;3.03;;;27.80;35.10;;;;;;5045100;28;20492;-68
2023/05/31 11:10:49;;;;;;;7.15;3.53;;;27.30;36.30;;;;;;5045674;28;20083;-68
2023/05/31 11:13:15;;;;;;;7.07;3.65;;;26.80;38.10;;;;;;5047432;28;20175;-69
2023/05/31 11:15:41;;;;;;;9.50;3.13;;;26.40;38.00;;;;;;5047791;28;20110;-69
2023/05/31 11:18:11;;;;;;;7.15;3.45;;;26.30;38.10;;;;;;5043160;28;20480;-68
2023/05/31 11:20:37;;;;;;;8.75;3.30;;;26.10;38.00;;;;;;5045711;28;20040;-69
2023/05/31 11:23:22;;;;;;;5.97;3.20;;;25.90;38.20;;;;;;5043094;28;20130;-70
2023/05/31 11:26:07;;;;;;;5.05;3.33;;;25.80;38.40;;;;;;5041988;28;20408;-69
2023/05/31 11:28:53;;;;;;;5.68;2.72;;;25.70;38.70;;;;;;5044571;28;20049;-69
2023/05/31 11:31:50;;;;;;;6.68;2.75;;;25.60;38.90;;;;;;5045410;28;20378;-68
2023/05/31 11:34:33;;;;;;;7.32;3.70;;;25.50;39.10;;;;;;5044361;28;20072;-69
2023/05/31 11:37:02;;;;;;;6.35;2.95;;;25.30;38.60;;;;;;5029429;28;20059;-69
2023/05/31 11:39:28;;;;;;;10.65;3.92;;;25.30;39.10;;;;;;5047593;28;20072;-69
2023/05/31 11:41:54;;;;;;;7.57;2.92;;;25.10;39.50;;;;;;5029820;28;20079;-73
2023/05/31 11:44:26;;;;;;;6.43;3.17;;;25.10;39.60;;;;;;5047029;28;20457;-68
2023/05/31 11:47:19;;;;;;;6.85;3.00;;;25.10;39.70;;;;;;5042059;28;20049;-69
2023/05/31 11:49:45;;;;;;;6.65;3.15;;;25.10;40.10;;;;;;5039826;28;20111;-69
2023/05/31 11:52:16;;;;;;;8.88;2.88;;;25.10;40.00;;;;;;5030084;28;20045;-69
2023/05/31 11:54:45;;;;;;;7.18;3.17;;;25.10;40.20;;;;;;5046661;28;20080;-69
2023/05/31 11:57:11;;;;;;;5.55;2.60;;;25.10;40.60;;;;;;5047523;28;20037;-69
2023/05/31 11:59:39;;;;;;;7.55;3.22;;;25.30;40.00;;;;;;5048863;28;20079;-69
2023/05/31 12:02:06;;;;;;;7.95;2.67;;;25.20;39.80;;;;;;5047912;28;20049;-69
2023/05/31 12:04:36;;;;;;;6.50;2.80;;;25.30;39.90;;;;;;5047579;28;20088;-69
2023/05/31 12:07:07;;;;;;;6.78;2.70;;;25.40;39.70;;;;;;5046504;28;20071;-69
2023/05/31 12:09:33;;;;;;;9.70;2.70;;;25.40;39.90;;;;;;5043905;28;20357;-68
2023/05/31 12:12:00;;;;;;;5.00;2.40;;;25.40;39.60;;;;;;5047840;28;20037;-69
2023/05/31 12:14:26;;;;;;;5.88;2.55;;;25.80;39.10;;;;;;5046473;28;20043;-69
2023/05/31 12:16:55;;;;;;;6.47;2.78;;;27.10;38.10;;;;;;5049306;28;20120;-69
2023/05/31 12:19:21;;;;;;;7.80;2.47;;;28.30;36.10;;;;;;5046077;28;20109;-68
2023/05/31 12:21:48;;;;;;;7.07;2.55;;;29.00;34.50;;;;;;5048196;28;20033;-69
2023/05/31 12:24:15;;;;;;;6.07;2.67;;;29.10;33.60;;;;;;5048310;28;20037;-69
2023/05/31 12:26:43;;;;;;;8.80;2.58;;;29.20;32.90;;;;;;5050135;28;20055;-69
2023/05/31 12:29:10;;;;;;;6.50;2.25;;;28.70;33.30;;;;;;5053175;28;20357;-70
2023/05/31 12:31:37;;;;;;;5.18;2.30;;;28.70;33.80;;;;;;5049506;28;20063;-68
2023/05/31 12:34:05;;;;;;;8.77;2.42;;;28.50;34.20;;;;;;5048845;28;20171;-68
2023/05/31 12:36:38;;;;;;;4.45;2.25;;;28.80;33.90;;;;;;5045581;28;20037;-69
2023/05/31 12:39:14;;;;;;;4.68;2.13;;;30.30;33.00;;;;;;5043933;28;20048;-69
2023/05/31 12:41:44;;;;;;;5.22;2.20;;;31.50;31.70;;;;;;5050704;28;20049;-69
2023/05/31 12:44:16;;;;;;;;;;;32.80;29.80;;;;;;5049138;28;20037;-68
2023/05/31 12:46:42;;;;;;;3.90;2.20;;;33.60;29.40;;;;;;5048873;28;20356;-68
2023/05/31 12:49:26;;;;;;;8.10;2.97;;;34.20;28.40;;;;;;5050464;28;20055;-69
2023/05/31 12:52:09;;;;;;;6.25;2.38;;;34.80;26.90;;;;;;5047526;28;20044;-68